Wetterdaten: aktuell Sonntag, 25.08.2019 12:00
Datum Zeit Temp. I. Temp. A. Boden Garten Temp. Wind Windchill X Feuchte I. Feuchte A. Garten Boden Luftdruck Regen Wind Richtung Richtung Windchill Windben
25.08.2019 12:00 23,1 C 24,2 C 23,5 C 26,4 C 0,0 C 0,0 C 62 % 63 % 5 % 50 % 1019,4 hPa 0,0 l/m 0,0 km/h N 360 0,0 C 0,0 km/h
25.08.2019 11:40 23,0 C 23,7 C 22,5 C 25,9 C 0,0 C 0,0 C 62 % 65 % 5 % 52 % 1019,8 hPa 0,0 l/m 0,0 km/h N 360 0,0 C 0,0 km/h
25.08.2019 11:20 22,9 C 23,2 C 21,6 C 25,3 C 0,0 C 0,0 C 62 % 67 % 5 % 53 % 1019,8 hPa 0,0 l/m 0,0 km/h N 360 0,0 C 0,0 km/h
25.08.2019 11:00 22,8 C 22,7 C 20,6 C 24,7 C 0,0 C 0,0 C 62 % 69 % 5 % 54 % 1019,6 hPa 0,0 l/m 0,0 km/h N 360 0,0 C 0,0 km/h
25.08.2019 10:40 22,7 C 22,4 C 19,9 C 24,1 C 0,0 C 0,0 C 62 % 69 % 5 % 55 % 1019,3 hPa 0,0 l/m 0,0 km/h N 360 0,0 C 0,0 km/h
25.08.2019 10:20 22,5 C 22,4 C 18,8 C 23,7 C 0,0 C 0,0 C 61 % 70 % 5 % 55 % 1019,6 hPa 0,0 l/m 0,0 km/h N 360 0,0 C 0,0 km/h
25.08.2019 10:00 22,4 C 22,7 C 17,9 C 23,2 C 0,0 C 0,0 C 62 % 71 % 5 % 53 % 1019,2 hPa 0,0 l/m 0,0 km/h N 360 0,0 C 0,0 km/h
25.08.2019 09:40 22,2 C 22,1 C 17,4 C 22,8 C 0,0 C 0,0 C 62 % 72 % 5 % 55 % 1019,2 hPa 0,0 l/m 0,0 km/h N 360 0,0 C 0,0 km/h
25.08.2019 09:20 22,0 C 21,1 C 16,9 C 23,0 C 0,0 C 0,0 C 61 % 75 % 5 % 51 % 1019,2 hPa 0,0 l/m 0,0 km/h N 360 0,0 C 0,0 km/h
25.08.2019 09:00 21,9 C 19,2 C 16,5 C 23,5 C 0,0 C 0,0 C 61 % 78 % 5 % 51 % 1019,1 hPa 0,0 l/m 0,0 km/h N 360 0,0 C 0,0 km/h
25.08.2019 08:40 21,9 C 17,5 C 16,4 C 30,3 C 0,0 C 0,0 C 60 % 79 % 5 % 41 % 1019,2 hPa 0,0 l/m 0,0 km/h N 360 0,0 C 0,0 km/h
25.08.2019 08:20 21,7 C 16,5 C 16,1 C 28,1 C 0,0 C 0,0 C 60 % 80 % 5 % 44 % 1018,7 hPa 0,0 l/m 0,0 km/h N 360 0,0 C 0,0 km/h
25.08.2019 08:00 21,6 C 15,9 C 15,9 C 24,6 C 0,0 C 0,0 C 60 % 81 % 5 % 49 % 1018,8 hPa 0,0 l/m 0,0 km/h N 360 0,0 C 0,0 km/h
25.08.2019 07:40 21,6 C 15,4 C 15,9 C 20,8 C 0,0 C 0,0 C 59 % 80 % 5 % 56 % 1018,6 hPa 0,0 l/m 0,0 km/h N 360 0,0 C 0,0 km/h
25.08.2019 07:20 21,5 C 15,5 C 15,5 C 15,8 C 0,0 C 0,0 C 59 % 80 % 5 % 62 % 1018,6 hPa 0,0 l/m 0,0 km/h N 360 0,0 C 0,0 km/h
25.08.2019 07:00 21,5 C 15,5 C 15,8 C 15,4 C 0,0 C 0,0 C 59 % 79 % 5 % 62 % 1019,1 hPa 0,0 l/m 0,0 km/h N 360 0,0 C 0,0 km/h
25.08.2019 06:40 21,7 C 15,6 C 16,0 C 15,5 C 0,0 C 0,0 C 59 % 79 % 5 % 62 % 1018,4 hPa 0,0 l/m 0,0 km/h N 360 0,0 C 0,0 km/h
25.08.2019 06:20 21,7 C 15,6 C 16,0 C 15,5 C 0,0 C 0,0 C 59 % 79 % 5 % 61 % 1018,5 hPa 0,0 l/m 0,0 km/h N 360 0,0 C 0,0 km/h
25.08.2019 06:00 21,8 C 15,7 C 15,9 C 15,7 C 0,0 C 0,0 C 58 % 78 % 5 % 61 % 1018,2 hPa 0,0 l/m 0,0 km/h N 360 0,0 C 0,0 km/h
25.08.2019 05:59 21,8 C 15,7 C 15,9 C 15,7 C 0,0 C 0,0 C 58 % 78 % 5 % 61 % 1018,2 hPa 0,0 l/m 0,0 km/h N 360 0,0 C 0,0 km/h
25.08.2019 05:40 21,9 C 15,7 C 16,2 C 15,8 C 0,0 C 0,0 C 58 % 77 % 5 % 60 % 1018,2 hPa 0,0 l/m 0,0 km/h N 360 0,0 C 0,0 km/h
25.08.2019 05:20 21,9 C 15,9 C 16,3 C 15,9 C 0,0 C 0,0 C 58 % 78 % 5 % 59 % 1018,3 hPa 0,0 l/m 0,0 km/h N 360 0,0 C 0,0 km/h
25.08.2019 05:00 22,0 C 16,1 C 16,4 C 16,0 C 0,0 C 0,0 C 58 % 77 % 5 % 59 % 1018,4 hPa 0,0 l/m 0,0 km/h N 360 0,0 C 0,0 km/h
25.08.2019 04:40 22,0 C 16,1 C 16,4 C 16,1 C 0,0 C 0,0 C 57 % 76 % 5 % 58 % 1018,2 hPa 0,0 l/m 0,0 km/h N 360 0,0 C 0,0 km/h
25.08.2019 04:20 22,1 C 16,0 C 16,3 C 16,1 C 0,0 C 0,0 C 57 % 75 % 5 % 58 % 1018,2 hPa 0,0 l/m 0,0 km/h N 360 0,0 C 0,0 km/h
25.08.2019 04:00 22,0 C 16,0 C 16,5 C 16,2 C 0,0 C 0,0 C 57 % 74 % 5 % 57 % 1018,3 hPa 0,0 l/m 0,0 km/h N 360 0,0 C 0,0 km/h
25.08.2019 03:40 22,0 C 16,2 C 16,5 C 16,3 C 0,0 C 0,0 C 57 % 75 % 5 % 57 % 1017,9 hPa 0,0 l/m 0,0 km/h N 360 0,0 C 0,0 km/h
25.08.2019 03:20 22,1 C 16,3 C 16,6 C 16,4 C 0,0 C 0,0 C 57 % 73 % 5 % 56 % 1018,2 hPa 0,0 l/m 0,0 km/h N 360 0,0 C 0,0 km/h
25.08.2019 03:00 22,1 C 16,5 C 16,8 C 16,6 C 0,0 C 0,0 C 57 % 73 % 5 % 56 % 1018,2 hPa 0,0 l/m 0,0 km/h N 360 0,0 C 0,0 km/h
25.08.2019 02:40 22,2 C 16,7 C 16,8 C 16,7 C 0,0 C 0,0 C 56 % 72 % 5 % 56 % 1018,4 hPa 0,0 l/m 0,0 km/h N 360 0,0 C 0,0 km/h
25.08.2019 02:20 22,2 C 16,6 C 16,8 C 16,9 C 0,0 C 0,0 C 56 % 72 % 5 % 55 % 1018,5 hPa 0,0 l/m 0,0 km/h N 360 0,0 C 0,0 km/h
25.08.2019 02:00 22,2 C 16,8 C 17,0 C 17,1 C 0,0 C 0,0 C 56 % 71 % 5 % 54 % 1018,4 hPa 0,0 l/m 0,0 km/h N 360 0,0 C 0,0 km/h
25.08.2019 01:40 22,4 C 17,0 C 17,4 C 17,3 C 0,0 C 0,0 C 56 % 69 % 5 % 53 % 1018,4 hPa 0,0 l/m 0,0 km/h N 360 0,0 C 0,0 km/h
25.08.2019 01:20 22,4 C 17,3 C 17,5 C 17,5 C 0,0 C 0,0 C 56 % 69 % 5 % 53 % 1018,6 hPa 0,0 l/m 0,0 km/h N 360 0,0 C 0,0 km/h
25.08.2019 01:00 22,5 C 17,4 C 17,7 C 17,8 C 0,0 C 0,0 C 55 % 68 % 5 % 52 % 1018,5 hPa 0,0 l/m 0,0 km/h N 360 0,0 C 0,0 km/h
25.08.2019 00:40 22,6 C 17,6 C 18,1 C 18,1 C 0,0 C 0,0 C 55 % 67 % 5 % 51 % 1018,4 hPa 0,0 l/m 0,0 km/h N 360 0,0 C 0,0 km/h
25.08.2019 00:20 22,7 C 17,9 C 18,3 C 18,4 C 0,0 C 0,0 C 55 % 66 % 5 % 50 % 1018,2 hPa 0,0 l/m 0,0 km/h N 360 0,0 C 0,0 km/h
25.08.2019 00:00 22,8 C 18,3 C 18,6 C 18,7 C 0,0 C 0,0 C 54 % 65 % 5 % 50 % 1018,2 hPa 0,0 l/m 0,0 km/h N 360 0,0 C 0,0 km/h
24.08.2019 23:40 22,8 C 18,7 C 19,2 C 19,1 C 0,0 C 0,0 C 54 % 64 % 5 % 49 % 1018,1 hPa 0,0 l/m 0,0 km/h N 360 0,0 C 0,0 km/h
24.08.2019 23:20 22,9 C 19,1 C 19,5 C 19,5 C 0,0 C 0,0 C 54 % 63 % 5 % 48 % 1018,2 hPa 0,0 l/m 0,0 km/h N 360 0,0 C 0,0 km/h
24.08.2019 23:00 23,0 C 19,6 C 20,0 C 19,9 C 0,0 C 0,0 C 53 % 61 % 5 % 47 % 1018,2 hPa 0,0 l/m 0,0 km/h N 360 0,0 C 0,0 km/h
24.08.2019 22:40 23,2 C 20,3 C 20,5 C 20,5 C 0,0 C 0,0 C 52 % 60 % 5 % 46 % 1017,9 hPa 0,0 l/m 0,0 km/h N 360 0,0 C 0,0 km/h
24.08.2019 22:20 23,4 C 20,9 C 21,1 C 21,0 C 0,0 C 0,0 C 52 % 58 % 5 % 45 % 1017,9 hPa 0,0 l/m 0,0 km/h N 360 0,0 C 0,0 km/h
24.08.2019 22:00 23,6 C 21,3 C 21,8 C 21,5 C 0,0 C 0,0 C 51 % 55 % 5 % 44 % 1017,8 hPa 0,0 l/m 0,0 km/h N 360 0,0 C 0,0 km/h
24.08.2019 21:40 23,7 C 22,0 C 22,2 C 22,1 C 0,0 C 0,0 C 50 % 52 % 5 % 43 % 1017,7 hPa 0,0 l/m 0,0 km/h N 360 0,0 C 0,0 km/h
24.08.2019 21:20 24,0 C 22,9 C 23,2 C 22,9 C 0,0 C 0,0 C 49 % 49 % 5 % 40 % 1017,4 hPa 0,0 l/m 0,0 km/h N 360 0,0 C 0,0 km/h
24.08.2019 21:00 24,4 C 23,8 C 24,0 C 23,8 C 0,0 C 0,0 C 47 % 45 % 5 % 37 % 1017,1 hPa 0,0 l/m 0,0 km/h N 360 0,0 C 0,0 km/h
24.08.2019 20:40 25,0 C 24,6 C 24,6 C 24,5 C 0,0 C 0,0 C 46 % 41 % 5 % 35 % 1016,7 hPa 0,0 l/m 0,0 km/h N 360 0,0 C 0,0 km/h
24.08.2019 20:20 26,1 C 25,1 C 25,5 C 25,4 C 0,0 C 0,0 C 43 % 39 % 5 % 33 % 1016,6 hPa 0,0 l/m 0,0 km/h N 360 0,0 C 0,0 km/h
24.08.2019 20:00 28,2 C 26,4 C 26,3 C 26,0 C 0,0 C 0,0 C 40 % 35 % 5 % 33 % 1017,0 hPa 0,0 l/m 0,0 km/h N 360 0,0 C 0,0 km/h
24.08.2019 19:40 33,3 C 27,9 C 26,8 C 26,6 C 0,0 C 0,0 C 34 % 33 % 5 % 32 % 1018,0 hPa 0,0 l/m 0,0 km/h N 360 0,0 C 0,0 km/h
24.08.2019 19:20 38,3 C 28,1 C 27,2 C 26,9 C 0,0 C 0,0 C 29 % 31 % 5 % 32 % 1019,7 hPa 0,0 l/m 0,0 km/h N 360 0,0 C 0,0 km/h
24.08.2019 19:00 30,1 C 29,4 C 27,5 C 27,2 C 0,0 C 0,0 C 42 % 29 % 5 % 32 % 1020,2 hPa 0,0 l/m 0,0 km/h N 360 0,0 C 0,0 km/h
24.08.2019 18:40 24,2 C 29,9 C 27,8 C 27,4 C 0,0 C 0,0 C 49 % 30 % 5 % 32 % 1018,8 hPa 0,0 l/m 0,0 km/h N 360 0,0 C 0,0 km/h
24.08.2019 18:20 23,8 C 29,1 C 28,0 C 27,5 C 0,0 C 0,0 C 50 % 32 % 5 % 32 % 1018,4 hPa 0,0 l/m 0,0 km/h N 360 0,0 C 0,0 km/h
24.08.2019 18:00 23,4 C 28,5 C 28,6 C 27,6 C 0,0 C 0,0 C 51 % 33 % 5 % 32 % 1018,6 hPa 0,0 l/m 0,0 km/h N 360 0,0 C 0,0 km/h
24.08.2019 17:40 23,2 C 27,9 C 29,2 C 27,6 C 0,0 C 0,0 C 52 % 34 % 5 % 32 % 1018,9 hPa 0,0 l/m 0,0 km/h N 360 0,0 C 0,0 km/h
24.08.2019 17:20 23,1 C 27,6 C 29,0 C 27,7 C 0,0 C 0,0 C 52 % 34 % 5 % 33 % 1018,9 hPa 0,0 l/m 0,0 km/h N 360 0,0 C 0,0 km/h
24.08.2019 17:00 23,0 C 27,0 C 29,2 C 27,7 C 0,0 C 0,0 C 53 % 35 % 5 % 32 % 1019,1 hPa 0,0 l/m 0,0 km/h N 360 0,0 C 0,0 km/h
24.08.2019 16:40 22,8 C 26,3 C 29,3 C 27,5 C 0,0 C 0,0 C 53 % 36 % 5 % 33 % 1019,2 hPa 0,0 l/m 0,0 km/h N 360 0,0 C 0,0 km/h
24.08.2019 16:20 22,7 C 25,4 C 29,3 C 27,3 C 0,0 C 0,0 C 54 % 38 % 5 % 34 % 1019,4 hPa 0,0 l/m 0,0 km/h N 360 0,0 C 0,0 km/h
24.08.2019 16:07 22,7 C 25,4 C 29,3 C 27,3 C 0,0 C 0,0 C 54 % 38 % 5 % 34 % 1019,4 hPa 0,0 l/m 0,0 km/h N 360 0,0 C 0,0 km/h
24.08.2019 16:01 22,7 C 25,4 C 29,3 C 27,3 C 0,0 C 0,0 C 54 % 38 % 5 % 34 % 1019,4 hPa 0,0 l/m 0,0 km/h N 360 0,0 C 0,0 km/h
24.08.2019 16:00 22,6 C 24,7 C 27,9 C 27,0 C 0,0 C 0,0 C 55 % 43 % 5 % 35 % 1019,6 hPa 0,0 l/m 0,0 km/h N 360 0,0 C 0,0 km/h
24.08.2019 15:40 22,5 C 24,8 C 27,2 C 26,6 C 0,0 C 0,0 C 55 % 43 % 5 % 38 % 1019,8 hPa 0,0 l/m 0,0 km/h N 360 0,0 C 0,0 km/h
24.08.2019 15:20 22,4 C 24,4 C 27,2 C 26,6 C 0,0 C 0,0 C 56 % 47 % 5 % 38 % 1019,8 hPa 0,0 l/m 0,0 km/h N 360 0,0 C 0,0 km/h
24.08.2019 15:00 22,4 C 24,1 C 26,8 C 26,4 C 0,0 C 0,0 C 56 % 47 % 5 % 39 % 1020,1 hPa 0,0 l/m 0,0 km/h N 360 0,0 C 0,0 km/h
24.08.2019 14:40 22,4 C 23,9 C 26,0 C 26,1 C 0,0 C 0,0 C 57 % 50 % 5 % 40 % 1020,1 hPa 0,0 l/m 0,0 km/h N 360 0,0 C 0,0 km/h
24.08.2019 14:20 22,2 C 23,7 C 25,7 C 26,0 C 0,0 C 0,0 C 57 % 50 % 5 % 40 % 1020,4 hPa 0,0 l/m 0,0 km/h N 360 0,0 C 0,0 km/h
24.08.2019 14:00 22,2 C 23,5 C 24,8 C 25,8 C 0,0 C 0,0 C 57 % 52 % 5 % 44 % 1020,7 hPa 0,0 l/m 0,0 km/h N 360 0,0 C 0,0 km/h
24.08.2019 13:40 22,1 C 23,1 C 24,6 C 25,3 C 0,0 C 0,0 C 57 % 53 % 5 % 44 % 1020,8 hPa 0,0 l/m 0,0 km/h N 360 0,0 C 0,0 km/h
24.08.2019 13:20 22,0 C 22,9 C 24,5 C 24,9 C 0,0 C 0,0 C 57 % 53 % 5 % 45 % 1020,8 hPa 0,0 l/m 0,0 km/h N 360 0,0 C 0,0 km/h
24.08.2019 13:00 21,9 C 23,0 C 25,0 C 24,7 C 0,0 C 0,0 C 58 % 51 % 5 % 45 % 1021,0 hPa 0,0 l/m 0,0 km/h N 360 0,0 C 0,0 km/h
_ Min-Zeit 07:20 07:40 07:20 07:00 12:00 12:00 19:20 19:00 12:00 19:40 20:20 - 12:00 - - 12:00 12:00
Minimum _ 21,5 C 15,4 C 15,5 C 15,4 C 0,0 C 0,0 C 29 % 29 % 5 % 32 % 1016,6 hPa - 0,0 km/h - - 0,0 C 0,0 km/h
_ Max-Zeit 19:20 18:40 16:40 08:40 12:00 12:00 12:00 08:00 12:00 07:20 13:00 12:00 12:00 - - 12:00 12:00
Maximum _ 38,3 C 29,9 C 29,3 C 30,3 C 0,0 C 0,0 C 62 % 81 % 5 % 62 % 1021,0 hPa 0,0 l/m 0,0 km/h
N
- - 0,0 C 0,0 km/h
N
Durchschnitt _ 23,1 C 21,2 C 21,5 C 22,4 C 0,0 C 0,0 C 55 % 59 % 5 % 47 % 1018,9 hPa #0,0 l/m 0,0 km/h N - 0,0 C 0,0 km/h